createdAt,value
2022-10-04T00:02:13.778Z,96900.75
2022-10-04T00:05:07.628Z,96835.69
2022-10-04T00:07:35.920Z,96729.69
2022-10-04T00:10:15.075Z,96875.69
2022-10-04T00:13:06.450Z,96896.66
2022-10-04T00:15:39.913Z,96763.34
2022-10-04T00:18:12.532Z,96894.22
2022-10-04T00:20:48.396Z,96895.84
2022-10-04T00:23:24.119Z,96890.53
2022-10-04T00:25:55.962Z,96889.03
2022-10-04T00:28:25.763Z,96680.28
2022-10-04T00:31:14.597Z,96878.41
2022-10-04T00:33:51.866Z,96838.94
2022-10-04T00:36:24.448Z,96873.50
2022-10-04T00:39:09.420Z,96879.78
2022-10-04T00:41:48.045Z,96873.50
2022-10-04T00:44:40.743Z,96817.72
2022-10-04T00:47:31.971Z,96782.94
2022-10-04T00:50:11.513Z,96790.22
2022-10-04T00:52:45.367Z,96777.19
2022-10-04T00:55:35.694Z,96879.22
2022-10-04T00:58:03.874Z,96691.78
2022-10-04T01:00:33.409Z,96824.63
2022-10-04T01:03:11.985Z,96825.16
2022-10-04T01:05:40.648Z,96769.53
2022-10-04T01:12:04.803Z,96770.97
2022-10-04T01:15:00.723Z,96852.72
2022-10-04T01:17:27.325Z,96716.38
2022-10-04T01:19:54.207Z,96810.34
2022-10-04T01:22:37.143Z,96854.94
2022-10-04T01:25:04.263Z,96664.31
2022-10-04T01:27:41.282Z,96707.25
2022-10-04T01:30:16.378Z,96871.94
2022-10-04T01:32:45.185Z,96669.38
2022-10-04T01:35:13.635Z,96754.16
2022-10-04T01:37:40.332Z,96647.72
2022-10-04T01:40:09.098Z,96590.22
2022-10-04T01:42:40.369Z,96727.06
2022-10-04T01:45:18.002Z,96692.53
2022-10-04T01:47:48.959Z,96768.69
2022-10-04T01:50:28.230Z,96815.16
2022-10-04T01:52:56.853Z,96562.63
2022-10-04T01:55:34.167Z,96715.47
2022-10-04T01:58:13.901Z,96678.91
2022-10-04T02:00:45.257Z,96655.09
2022-10-04T02:03:17.947Z,96654.03
2022-10-04T02:05:53.401Z,96692.66
2022-10-04T02:08:27.231Z,96685.00
2022-10-04T02:10:57.468Z,96666.47
2022-10-04T02:13:24.451Z,96696.06
2022-10-04T02:16:38.524Z,96829.41
2022-10-04T02:19:05.126Z,96643.19
2022-10-04T02:21:32.142Z,96669.16
2022-10-04T02:23:58.806Z,96706.19
2022-10-04T02:26:25.397Z,96781.50
2022-10-04T02:28:51.999Z,96644.66
2022-10-04T02:31:39.782Z,96604.69
2022-10-04T02:34:06.606Z,96818.88
2022-10-04T02:36:33.494Z,96684.19
2022-10-04T02:42:59.779Z,96737.03
2022-10-04T02:45:56.577Z,96810.44
2022-10-04T02:48:23.110Z,96817.25
2022-10-04T02:50:51.747Z,96606.91
2022-10-04T02:53:22.600Z,96686.94
2022-10-04T02:55:49.258Z,96600.81
2022-10-04T02:58:18.378Z,96831.84
2022-10-04T03:01:03.951Z,96547.13
2022-10-04T03:03:35.210Z,96723.50
2022-10-04T03:06:09.127Z,96833.78
2022-10-04T03:08:44.426Z,96742.13
2022-10-04T03:11:12.059Z,96753.00
2022-10-04T03:13:39.771Z,96649.84
2022-10-04T03:16:06.603Z,96791.47
2022-10-04T03:18:33.304Z,96704.78
2022-10-04T03:21:08.280Z,96643.78
2022-10-04T03:23:34.748Z,96825.31
2022-10-04T03:26:15.922Z,96630.84
2022-10-04T03:28:42.815Z,96672.97
2022-10-04T03:31:09.531Z,96574.16
2022-10-04T03:34:40.876Z,96816.22
2022-10-04T03:37:15.750Z,96674.41
2022-10-04T03:43:31.785Z,96615.50
2022-10-04T03:45:59.000Z,96639.97
2022-10-04T03:48:37.620Z,96673.50
2022-10-04T03:51:05.867Z,96592.66
2022-10-04T03:53:43.501Z,96774.66
2022-10-04T03:56:22.177Z,96674.75
2022-10-04T03:58:49.634Z,96834.53
2022-10-04T04:01:46.918Z,96725.56
2022-10-04T04:08:10.203Z,96826.75
2022-10-04T04:10:42.943Z,96489.88
2022-10-04T04:13:29.329Z,96833.41
2022-10-04T04:15:56.260Z,96688.22
2022-10-04T04:18:27.834Z,96758.81
2022-10-04T04:20:59.214Z,96597.84
2022-10-04T04:23:39.269Z,96838.91
2022-10-04T04:26:39.301Z,96799.72
2022-10-04T04:29:07.075Z,96775.41
2022-10-04T04:31:46.054Z,96588.59
2022-10-04T04:34:24.918Z,96721.53
2022-10-04T04:36:52.894Z,96778.09
2022-10-04T04:39:43.816Z,96670.34
2022-10-04T04:42:10.549Z,96861.66
2022-10-04T04:44:47.509Z,96761.00
2022-10-04T04:47:38.404Z,96866.09
2022-10-04T04:50:15.664Z,96701.00
2022-10-04T04:52:50.270Z,96837.28
2022-10-04T04:55:23.449Z,96862.97
2022-10-04T04:57:51.289Z,96662.84
2022-10-04T05:00:19.511Z,96656.16
2022-10-04T05:02:58.874Z,96792.16
2022-10-04T05:05:27.319Z,96814.06
2022-10-04T05:08:27.926Z,96838.00
2022-10-04T05:11:01.518Z,96879.63
2022-10-04T05:13:52.199Z,96861.03
2022-10-04T05:16:21.767Z,96892.19
2022-10-04T05:18:48.486Z,96779.03
2022-10-04T05:21:24.514Z,96839.00
2022-10-04T05:24:11.291Z,96799.25
2022-10-04T05:26:37.904Z,96855.69
2022-10-04T05:29:15.274Z,96873.53
2022-10-04T05:31:50.157Z,96889.03
2022-10-04T05:34:46.988Z,96889.03
2022-10-04T05:37:20.678Z,96893.56
2022-10-04T05:39:48.372Z,96897.78
2022-10-04T05:42:30.631Z,96847.81
2022-10-04T05:44:57.934Z,96836.25
2022-10-04T05:47:28.962Z,96846.28
2022-10-04T05:49:57.964Z,96869.84
2022-10-04T05:52:30.059Z,96714.91
2022-10-04T05:55:21.448Z,96904.00
2022-10-04T05:58:18.287Z,96910.53
2022-10-04T06:01:08.728Z,96827.34
2022-10-04T06:04:00.766Z,96820.25
2022-10-04T06:06:40.558Z,96905.69
2022-10-04T06:09:32.104Z,96907.41
2022-10-04T06:12:12.595Z,96883.16
2022-10-04T06:14:48.628Z,96917.88
2022-10-04T06:17:15.103Z,96920.53
2022-10-04T06:20:02.808Z,96927.59
2022-10-04T06:22:29.824Z,96839.16
2022-10-04T06:25:07.163Z,96831.97
2022-10-04T06:27:37.094Z,96932.88
2022-10-04T06:30:06.065Z,96857.06
2022-10-04T06:32:43.924Z,96941.88
2022-10-04T06:35:47.964Z,96950.16
2022-10-04T06:38:47.281Z,96955.66
2022-10-04T06:41:25.587Z,96951.56
2022-10-04T06:44:16.917Z,96955.66
2022-10-04T06:46:58.648Z,96968.25
2022-10-04T06:49:49.537Z,96958.81
2022-10-04T06:52:34.926Z,96963.22
2022-10-04T06:55:11.029Z,96974.91
2022-10-04T06:57:53.720Z,96977.81
2022-10-04T07:00:24.320Z,96987.00
2022-10-04T07:03:12.586Z,96975.09
2022-10-04T07:05:48.292Z,96930.50
2022-10-04T07:08:31.543Z,96982.00
2022-10-04T07:11:13.775Z,96988.47
2022-10-04T07:13:47.987Z,96987.75
2022-10-04T07:16:27.736Z,96985.97
2022-10-04T07:19:28.470Z,96996.88
2022-10-04T07:22:21.373Z,96996.88
2022-10-04T07:24:47.899Z,96999.19
2022-10-04T07:27:36.755Z,96980.91
2022-10-04T07:30:15.391Z,96935.72
2022-10-04T07:32:51.225Z,97011.81
2022-10-04T07:35:36.039Z,96660.31
2022-10-04T07:38:10.848Z,97010.84
2022-10-04T07:40:38.815Z,96816.56
2022-10-04T07:43:26.927Z,96995.03
2022-10-04T07:45:54.798Z,97002.16
2022-10-04T07:48:24.069Z,96988.28
2022-10-04T07:51:28.143Z,97007.44
2022-10-04T07:53:59.220Z,97009.00
2022-10-04T07:56:47.713Z,96980.00
2022-10-04T07:59:39.088Z,97012.19
2022-10-04T08:02:08.793Z,97018.16
2022-10-04T08:04:50.772Z,97019.94
2022-10-04T08:07:31.754Z,97015.19
2022-10-04T08:10:14.617Z,96970.06
2022-10-04T08:13:03.464Z,96953.44
2022-10-04T08:15:40.634Z,96994.81
2022-10-04T08:18:10.403Z,97032.06
2022-10-04T08:20:36.917Z,97030.31
2022-10-04T08:23:24.107Z,96985.91
2022-10-04T08:26:04.018Z,97035.59
2022-10-04T08:29:20.324Z,96940.72
2022-10-04T08:32:05.631Z,97050.97
2022-10-04T08:34:43.297Z,97051.41
2022-10-04T08:37:47.050Z,97053.94
2022-10-04T08:40:51.380Z,97063.63
2022-10-04T08:43:30.718Z,97055.56
2022-10-04T08:46:35.802Z,97055.50
2022-10-04T08:49:21.507Z,97056.81
2022-10-04T08:52:09.587Z,97054.59
2022-10-04T08:55:26.544Z,97061.00
2022-10-04T08:58:29.974Z,97063.16
2022-10-04T09:01:22.997Z,97061.06
2022-10-04T09:04:02.557Z,97076.22
2022-10-04T09:07:06.804Z,97064.25
2022-10-04T09:09:48.518Z,97066.94
2022-10-04T09:12:26.311Z,97044.59
2022-10-04T09:15:02.259Z,96970.72
2022-10-04T09:17:37.747Z,97075.28
2022-10-04T09:20:38.465Z,97078.13
2022-10-04T09:23:24.226Z,97072.97
2022-10-04T09:25:53.816Z,97070.44
2022-10-04T09:28:36.875Z,96981.22
2022-10-04T09:31:45.491Z,97072.03
2022-10-04T09:34:45.900Z,97059.06
2022-10-04T09:37:34.429Z,97067.72
2022-10-04T09:40:27.637Z,97010.66
2022-10-04T09:43:46.847Z,97045.44
2022-10-04T09:46:56.158Z,97087.38
2022-10-04T09:49:32.725Z,97077.94
2022-10-04T09:52:24.396Z,97081.88
2022-10-04T09:55:14.244Z,97078.97
2022-10-04T09:58:19.674Z,97053.66
2022-10-04T10:00:56.378Z,96962.22
2022-10-04T10:03:46.549Z,97090.03
2022-10-04T10:06:21.817Z,97107.66
2022-10-04T10:08:58.966Z,97104.97
2022-10-04T10:11:59.482Z,97110.44
2022-10-04T10:14:41.365Z,97098.47
2022-10-04T10:17:15.395Z,97110.59
2022-10-04T10:23:34.406Z,97027.59
2022-10-04T10:26:24.901Z,97117.47
2022-10-04T10:29:26.286Z,97117.34
2022-10-04T10:31:58.990Z,97124.38
2022-10-04T10:34:37.731Z,97128.03
2022-10-04T10:37:16.717Z,97101.66
2022-10-04T10:40:16.982Z,97131.59
2022-10-04T10:42:56.249Z,97075.47
2022-10-04T10:45:35.098Z,97131.91
2022-10-04T10:48:26.627Z,97134.25
2022-10-04T10:51:31.447Z,97133.63
2022-10-04T10:54:35.625Z,97131.28
2022-10-04T10:57:11.130Z,97135.41
2022-10-04T11:00:11.848Z,97138.19
2022-10-04T11:03:14.599Z,97133.84
2022-10-04T11:05:51.473Z,97125.56
2022-10-04T11:08:56.622Z,97130.81
2022-10-04T11:11:26.109Z,97134.72
2022-10-04T11:14:20.112Z,97053.34
2022-10-04T11:17:07.604Z,97131.91
2022-10-04T11:20:05.545Z,97125.25
2022-10-04T11:22:50.806Z,97125.06
2022-10-04T11:25:51.490Z,97129.28
2022-10-04T11:28:28.014Z,97074.50
2022-10-04T11:31:26.940Z,97136.00
2022-10-04T11:33:59.666Z,97133.06
2022-10-04T11:36:50.768Z,97124.03
2022-10-04T11:39:20.211Z,97128.91
2022-10-04T11:42:34.458Z,97135.03
2022-10-04T11:45:33.498Z,97035.44
2022-10-04T11:48:30.609Z,97020.44
2022-10-04T11:51:27.838Z,97031.66
2022-10-04T11:54:14.429Z,97117.16
2022-10-04T11:56:44.196Z,97123.53
2022-10-04T11:59:18.396Z,97059.34
2022-10-04T12:02:22.680Z,97116.59
2022-10-04T12:05:13.437Z,97073.91
2022-10-04T12:07:53.124Z,97096.31
2022-10-04T12:10:31.790Z,96869.06
2022-10-04T12:13:10.430Z,97111.28
2022-10-04T12:15:40.781Z,97108.34
2022-10-04T12:18:28.602Z,97115.03
2022-10-04T12:21:34.899Z,97101.78
2022-10-04T12:24:19.971Z,97114.56
2022-10-04T12:26:56.296Z,97115.56
2022-10-04T12:29:50.792Z,97048.84
2022-10-04T12:32:18.393Z,97107.06
2022-10-04T12:35:05.992Z,97098.94
2022-10-04T12:37:38.868Z,96979.66
2022-10-04T12:40:24.078Z,97106.69
2022-10-04T12:43:06.189Z,97118.31
2022-10-04T12:45:38.695Z,97115.69
2022-10-04T12:48:33.309Z,97008.53
2022-10-04T12:51:05.323Z,97060.91
2022-10-04T12:53:58.945Z,97049.34
2022-10-04T12:56:33.180Z,97119.16
2022-10-04T12:59:24.850Z,97122.75
2022-10-04T13:02:09.535Z,97132.72
2022-10-04T13:04:47.582Z,97053.31
2022-10-04T13:07:14.269Z,97134.03
2022-10-04T13:10:22.494Z,97129.47
2022-10-04T13:13:14.774Z,97125.88
2022-10-04T13:18:57.978Z,97137.94
2022-10-04T13:21:43.632Z,97098.47
2022-10-04T13:24:55.684Z,97115.44
2022-10-04T13:27:33.609Z,97031.47
2022-10-04T13:30:02.680Z,97112.66
2022-10-04T13:32:56.989Z,97061.47
2022-10-04T13:35:50.182Z,97153.78
2022-10-04T13:38:35.658Z,97156.72
2022-10-04T13:41:32.096Z,97155.25
2022-10-04T13:44:56.334Z,97103.38
2022-10-04T13:47:47.481Z,97152.13
2022-10-04T13:50:27.419Z,97130.09
2022-10-04T13:53:35.049Z,97160.94
2022-10-04T13:56:23.334Z,97058.44
2022-10-04T13:58:58.889Z,97156.50
2022-10-04T14:01:49.922Z,97157.31
2022-10-04T14:04:46.138Z,96980.38
2022-10-04T14:07:33.368Z,97147.00
2022-10-04T14:10:19.606Z,97147.66
2022-10-04T14:12:49.159Z,97150.25
2022-10-04T14:15:28.125Z,97154.31
2022-10-04T14:18:11.980Z,97152.84
2022-10-04T14:20:52.282Z,97118.41
2022-10-04T14:24:08.555Z,97046.75
2022-10-04T14:27:17.184Z,97155.47
2022-10-04T14:30:06.495Z,97138.13
2022-10-04T14:33:02.085Z,97021.34
2022-10-04T14:35:45.604Z,97159.78
2022-10-04T14:38:15.746Z,97158.47
2022-10-04T14:41:03.816Z,97161.84
2022-10-04T14:44:02.089Z,97162.47
2022-10-04T14:46:35.330Z,97164.72
2022-10-04T14:49:30.133Z,97115.22
2022-10-04T14:52:04.449Z,97164.81
2022-10-04T14:54:35.304Z,97167.75
2022-10-04T14:57:07.050Z,97143.19
2022-10-04T14:59:53.720Z,97166.41
2022-10-04T15:02:35.178Z,97165.41
2022-10-04T15:05:23.694Z,97153.66
2022-10-04T15:07:55.422Z,97127.22
2022-10-04T15:10:31.862Z,97162.69
2022-10-04T15:13:20.860Z,97040.81
2022-10-04T15:16:27.254Z,97167.16
2022-10-04T15:18:56.361Z,97016.38
2022-10-04T15:21:35.009Z,97167.56
2022-10-04T15:24:16.686Z,97167.38
2022-10-04T15:26:51.137Z,97057.81
2022-10-04T15:29:52.989Z,97077.19
2022-10-04T15:32:40.960Z,97105.34
2022-10-04T15:35:13.542Z,97188.13
2022-10-04T15:38:15.035Z,96923.75
2022-10-04T15:40:54.047Z,97194.16
2022-10-04T15:43:50.293Z,97200.22
2022-10-04T15:46:36.196Z,97195.06
2022-10-04T15:49:25.622Z,97194.00
2022-10-04T15:52:03.645Z,97196.50
2022-10-04T15:54:47.764Z,97202.28
2022-10-04T15:57:28.498Z,97065.41
2022-10-04T16:00:02.759Z,97191.47
2022-10-04T16:03:20.362Z,97208.25
2022-10-04T16:06:01.223Z,97117.50
2022-10-04T16:08:48.606Z,97212.56
2022-10-04T16:11:52.448Z,97210.97
2022-10-04T16:14:43.208Z,97158.78
2022-10-04T16:17:27.210Z,97134.78
2022-10-04T16:20:03.206Z,97217.34
2022-10-04T16:22:33.671Z,97007.59
2022-10-04T16:25:25.593Z,97229.94
2022-10-04T16:27:56.043Z,97229.78
2022-10-04T16:30:34.797Z,97218.34
2022-10-04T16:33:10.430Z,97220.78
2022-10-04T16:35:49.800Z,97229.78
2022-10-04T16:38:24.347Z,97206.56
2022-10-04T16:40:50.837Z,97229.22
2022-10-04T16:43:17.340Z,97241.19
2022-10-04T16:45:48.343Z,97164.72
2022-10-04T16:48:46.686Z,97244.47
2022-10-04T16:51:13.359Z,97251.00
2022-10-04T16:53:49.097Z,97249.75
2022-10-04T16:56:23.803Z,97251.09
2022-10-04T16:59:13.594Z,97247.41
2022-10-04T17:02:03.505Z,97254.75
2022-10-04T17:04:36.017Z,97250.66
2022-10-04T17:07:18.331Z,97187.63
2022-10-04T17:09:57.165Z,97254.47
2022-10-04T17:12:35.541Z,97264.13
2022-10-04T17:15:17.242Z,97264.97
2022-10-04T17:18:11.445Z,97271.91
2022-10-04T17:20:50.377Z,97200.34
2022-10-04T17:23:47.773Z,97275.03
2022-10-04T17:26:38.448Z,97267.16
2022-10-04T17:29:24.289Z,97265.13
2022-10-04T17:31:56.971Z,97267.47
2022-10-04T17:34:58.869Z,97194.78
2022-10-04T17:37:44.721Z,97224.88
2022-10-04T17:40:17.422Z,97263.53
2022-10-04T17:42:56.089Z,97271.59
2022-10-04T17:45:29.335Z,97278.53
2022-10-04T17:48:29.098Z,97185.78
2022-10-04T17:51:24.897Z,97273.88
2022-10-04T17:54:10.986Z,97280.53
2022-10-04T17:56:52.997Z,97164.47
2022-10-04T17:59:29.974Z,97255.59
2022-10-04T18:02:10.240Z,97277.94
2022-10-04T18:04:37.451Z,97241.41
2022-10-04T18:07:04.022Z,97285.28
2022-10-04T18:09:32.612Z,97078.38
2022-10-04T18:12:11.411Z,97184.06
2022-10-04T18:14:45.536Z,97298.25
2022-10-04T18:17:26.013Z,97139.16
2022-10-04T18:19:58.456Z,97301.41
2022-10-04T18:22:30.142Z,97206.25
2022-10-04T18:25:13.000Z,97269.75
2022-10-04T18:27:50.245Z,97307.09
2022-10-04T18:30:20.964Z,97094.13
2022-10-04T18:32:51.540Z,97134.22
2022-10-04T18:35:27.028Z,97310.56
2022-10-04T18:37:55.347Z,97203.97
2022-10-04T18:40:26.660Z,97224.38
2022-10-04T18:42:57.183Z,97034.47
2022-10-04T18:45:28.501Z,97201.28
2022-10-04T18:47:56.059Z,97054.28
2022-10-04T18:50:22.628Z,97317.91
2022-10-04T18:53:09.198Z,97197.75
2022-10-04T18:55:50.388Z,97201.63
2022-10-04T19:02:16.394Z,97265.34
2022-10-04T19:05:09.166Z,97326.81
2022-10-04T19:07:48.354Z,97336.56
2022-10-04T19:10:27.526Z,97173.31
2022-10-04T19:13:23.432Z,97329.97
2022-10-04T19:16:16.036Z,97336.31
2022-10-04T19:18:57.945Z,97346.75
2022-10-04T19:21:35.082Z,97345.13
2022-10-04T19:24:26.681Z,97173.28
2022-10-04T19:27:06.303Z,97340.91
2022-10-04T19:29:54.898Z,97344.50
2022-10-04T19:32:45.938Z,97340.53
2022-10-04T19:35:49.443Z,97342.63
2022-10-04T19:38:30.487Z,97119.69
2022-10-04T19:41:29.576Z,97350.47
2022-10-04T19:44:27.034Z,97345.78
2022-10-04T19:47:26.661Z,97354.41
2022-10-04T19:50:07.391Z,97361.69
2022-10-04T19:52:43.468Z,97368.81
2022-10-04T19:55:19.626Z,97367.41
2022-10-04T19:57:51.578Z,97203.09
2022-10-04T20:00:20.303Z,97300.59
2022-10-04T20:02:48.938Z,97087.91
2022-10-04T20:05:24.951Z,97172.53
2022-10-04T20:07:55.751Z,97237.06
2022-10-04T20:10:29.118Z,97211.09
2022-10-04T20:13:12.275Z,97381.03
2022-10-04T20:15:38.894Z,97390.03
2022-10-04T20:18:31.731Z,97379.81
2022-10-04T20:21:01.549Z,97382.50
2022-10-04T20:23:40.597Z,97377.47
2022-10-04T20:26:11.292Z,97289.88
2022-10-04T20:28:40.722Z,97230.63
2022-10-04T20:31:30.469Z,97389.16
2022-10-04T20:34:23.641Z,97384.22
2022-10-04T20:36:51.839Z,97228.09
2022-10-04T20:39:40.185Z,97385.34
2022-10-04T20:42:26.385Z,97391.69
2022-10-04T20:44:59.442Z,97278.91
2022-10-04T20:47:35.276Z,97388.59
2022-10-04T20:50:01.964Z,97280.69
2022-10-04T20:52:32.543Z,97310.19
2022-10-04T20:55:03.112Z,97414.91
2022-10-04T20:57:30.477Z,97232.28
2022-10-04T20:59:57.770Z,97387.94
2022-10-04T21:02:27.539Z,97257.97
2022-10-04T21:04:54.322Z,97266.63
2022-10-04T21:07:22.721Z,97204.09
2022-10-04T21:09:51.006Z,97364.91
2022-10-04T21:12:39.535Z,97268.19
2022-10-04T21:15:06.661Z,97409.78
2022-10-04T21:17:33.932Z,97267.47
2022-10-04T21:20:00.575Z,97288.16
2022-10-04T21:22:28.018Z,97414.50
2022-10-04T21:24:56.325Z,97226.94
2022-10-04T21:27:28.918Z,97418.00
2022-10-04T21:29:56.558Z,97286.47
2022-10-04T21:32:23.996Z,97271.75
2022-10-04T21:34:53.509Z,97120.31
2022-10-04T21:37:20.863Z,97120.50
2022-10-04T21:39:47.507Z,97419.16
2022-10-04T21:42:14.116Z,97370.25
2022-10-04T21:44:40.707Z,97273.97
2022-10-04T21:47:07.359Z,97429.78
2022-10-04T21:49:34.438Z,97424.41
2022-10-04T21:52:01.086Z,97414.63
2022-10-04T21:54:27.670Z,97359.97
2022-10-04T21:56:54.309Z,97373.00
2022-10-04T21:59:21.268Z,97281.78
2022-10-04T22:01:48.067Z,97397.94
2022-10-04T22:04:14.646Z,97360.16
2022-10-04T22:06:41.352Z,97436.56
2022-10-04T22:09:08.013Z,97408.03
2022-10-04T22:11:35.160Z,97282.06
2022-10-04T22:14:01.873Z,97426.28
2022-10-04T22:16:28.580Z,97256.16
2022-10-04T22:18:55.275Z,97214.38
2022-10-04T22:21:21.932Z,97269.94
2022-10-04T22:23:48.617Z,97316.72
2022-10-04T22:26:17.398Z,97364.47
2022-10-04T22:28:45.921Z,97318.50
2022-10-04T22:31:16.811Z,97399.38
2022-10-04T22:33:44.641Z,97416.69
2022-10-04T22:36:37.034Z,97426.19
2022-10-04T22:39:09.515Z,97423.78
2022-10-04T22:41:40.867Z,97287.81
2022-10-04T22:44:18.014Z,97386.91
2022-10-04T22:46:46.563Z,97350.59
2022-10-04T22:49:18.011Z,97229.41
2022-10-04T22:51:45.407Z,97421.59
2022-10-04T22:54:13.203Z,97315.22
2022-10-04T22:56:40.316Z,97304.69
2022-10-04T22:59:10.289Z,97290.19
2022-10-04T23:01:36.865Z,97082.91
2022-10-04T23:04:03.556Z,97301.72
2022-10-04T23:06:30.749Z,97147.16
2022-10-04T23:08:57.991Z,97317.66
2022-10-04T23:11:24.575Z,97314.78
2022-10-04T23:13:51.203Z,97240.53
2022-10-04T23:16:20.187Z,97390.94
2022-10-04T23:18:46.820Z,97217.06
2022-10-04T23:21:20.783Z,97328.78
2022-10-04T23:23:48.170Z,97386.19
2022-10-04T23:26:25.074Z,97241.25
2022-10-04T23:28:51.723Z,97331.06
2022-10-04T23:31:25.676Z,97357.69
2022-10-04T23:33:53.654Z,97292.88
2022-10-04T23:36:23.362Z,97369.13
2022-10-04T23:38:51.935Z,97349.88
2022-10-04T23:41:31.871Z,97360.06
2022-10-04T23:43:58.502Z,97366.84
2022-10-04T23:46:25.083Z,97412.03
2022-10-04T23:48:51.750Z,97380.88
2022-10-04T23:51:18.952Z,97378.47
2022-10-04T23:53:46.798Z,97377.75
2022-10-04T23:56:20.350Z,97473.84
2022-10-04T23:58:47.094Z,97412.56
